Time;durP1;ratioP1;P1;durP2;ratioP2;P2;SDS_P1;SDS_P2;PMS_P1;PMS_P2;Temp;Humidity;BMP_temperature;BMP_pressure;BME280_temperature;BME280_humidity;BME280_pressure;Samples;Min_cycle;Max_cycle;Signal;HPM_P1;HPM_P2
2022/01/28 00:05:16;;;;;;;7.53;3.20;;;;;;;4.18;100.00;100018.19;5095054;28;20207;-85
2022/01/28 00:07:44;;;;;;;6.30;2.87;;;;;;;4.23;100.00;100018.06;5094924;28;20203;-85
2022/01/28 00:10:13;;;;;;;9.67;2.73;;;;;;;4.14;100.00;100021.75;5089151;28;20188;-85
2022/01/28 00:13:00;;;;;;;6.53;2.20;;;;;;;4.18;100.00;100027.81;5087877;28;20203;-84
2022/01/28 00:15:33;;;;;;;3.00;1.70;;;;;;;4.14;100.00;100031.38;5088795;28;20203;-84
2022/01/28 00:40:22;;;;;;;5.90;1.40;;;;;;;4.13;100.00;100042.75;5033675;28;20232;-86
2022/01/28 00:42:53;;;;;;;5.83;1.30;;;;;;;4.18;100.00;100036.53;5045636;28;20213;-85
2022/01/28 00:45:22;;;;;;;4.43;1.40;;;;;;;4.19;100.00;100048.75;5029252;28;20190;-85
2022/01/28 00:47:50;;;;;;;8.43;1.33;;;;;;;4.04;100.00;100038.59;5029206;28;20225;-85
2022/01/28 00:50:20;;;;;;;6.77;1.60;;;;;;;4.06;100.00;100056.94;5044602;28;20215;-84
2022/01/28 00:52:50;;;;;;;5.73;1.63;;;;;;;3.99;100.00;100064.06;5050424;28;20251;-85
2022/01/28 00:55:20;;;;;;;6.47;1.70;;;;;;;3.99;100.00;100049.19;5049350;28;20221;-85
2022/01/28 00:57:49;;;;;;;7.77;1.63;;;;;;;4.00;100.00;100047.44;5042770;28;20201;-85
2022/01/28 01:00:18;;;;;;;6.33;2.23;;;;;;;4.00;100.00;100061.41;5046110;28;20193;-85
2022/01/28 01:02:47;;;;;;;3.43;1.63;;;;;;;3.96;100.00;100062.38;5060789;28;20227;-86
2022/01/28 01:05:15;;;;;;;3.40;1.90;;;;;;;3.96;100.00;100070.25;5087808;28;20195;-84
2022/01/28 01:07:45;;;;;;;7.57;2.10;;;;;;;3.97;100.00;100068.50;5088916;28;20196;-85
2022/01/28 01:10:13;;;;;;;4.77;1.93;;;;;;;3.90;100.00;100070.38;5085027;28;20203;-85
2022/01/28 01:12:44;;;;;;;3.80;2.20;;;;;;;3.96;100.00;100090.34;5056955;28;20210;-84
2022/01/28 01:15:17;;;;;;;9.00;2.50;;;;;;;3.98;100.00;100081.56;5093343;28;20196;-85
2022/01/28 01:17:54;;;;;;;6.07;2.20;;;;;;;3.99;100.00;100090.28;5047248;28;20205;-85
2022/01/28 01:23:10;;;;;;;6.00;2.40;;;;;;;4.01;100.00;100098.97;5049876;28;20217;-84
2022/01/28 01:25:47;;;;;;;7.27;2.80;;;;;;;4.02;100.00;100104.16;5051682;28;20258;-85
2022/01/28 01:28:19;;;;;;;7.50;2.73;;;;;;;4.01;100.00;100099.81;5047206;28;20193;-84
2022/01/28 01:30:49;;;;;;;5.37;3.17;;;;;;;4.13;100.00;100105.69;5042281;28;20201;-85
2022/01/28 01:33:19;;;;;;;8.17;2.80;;;;;;;4.15;100.00;100103.88;5044524;28;20189;-84
2022/01/28 01:35:48;;;;;;;8.43;2.80;;;;;;;4.16;100.00;100111.75;5063303;28;20193;-84
2022/01/28 01:38:26;;;;;;;8.17;2.80;;;;;;;4.17;100.00;100110.84;5090663;28;20237;-84
2022/01/28 01:41:01;;;;;;;9.67;3.37;;;;;;;4.08;100.00;100108.41;5091987;28;20262;-84
2022/01/28 01:43:42;;;;;;;8.40;3.13;;;;;;;4.15;100.00;100106.50;5086698;28;20275;-84
2022/01/28 01:46:22;;;;;;;7.00;2.60;;;;;;;4.14;100.00;100105.66;5091342;28;20270;-85
2022/01/28 01:54:23;;;;;;;6.77;2.70;;;;;;;4.20;100.00;100113.38;5097617;28;20233;-84
2022/01/28 01:56:54;;;;;;;6.30;2.77;;;;;;;4.31;100.00;100121.84;5060931;28;20192;-84
2022/01/28 01:59:23;;;;;;;7.93;2.90;;;;;;;4.25;100.00;100129.88;5096838;28;20225;-84
2022/01/28 02:01:51;;;;;;;9.53;2.70;;;;;;;4.26;100.00;100121.13;5097192;28;20216;-84
2022/01/28 02:04:20;;;;;;;8.50;2.80;;;;;;;4.35;100.00;100127.06;5097225;28;20385;-85
2022/01/28 02:06:48;;;;;;;5.47;2.80;;;;;;;4.17;100.00;100123.94;5094764;28;20203;-85
2022/01/28 02:09:17;;;;;;;8.67;3.03;;;;;;;4.23;100.00;100125.56;5090577;28;20192;-84
2022/01/28 02:11:48;;;;;;;10.10;2.80;;;;;;;4.35;100.00;100127.91;5040484;28;20196;-84
2022/01/28 02:14:16;;;;;;;9.83;3.37;;;;;;;4.27;100.00;100125.47;5097034;28;20192;-85
2022/01/28 02:16:44;;;;;;;8.60;2.80;;;;;;;4.28;100.00;100128.94;5011674;28;20199;-84
2022/01/28 02:19:13;;;;;;;8.53;2.57;;;;;;;4.38;100.00;100125.22;5096900;28;20225;-83
2022/01/28 02:21:46;;;;;;;9.57;2.90;;;;;;;4.34;100.00;100120.91;5084467;28;20207;-85
2022/01/28 02:24:18;;;;;;;9.30;2.40;;;;;;;4.29;100.00;100126.28;5096943;28;20183;-84
2022/01/28 02:26:46;;;;;;;7.73;2.57;;;;;;;4.35;100.00;100121.81;5089115;28;20527;-85
2022/01/28 02:29:26;;;;;;;8.20;2.77;;;;;;;4.40;100.00;100128.66;5087131;28;20207;-84
2022/01/28 02:31:56;;;;;;;6.07;2.30;;;;;;;4.37;100.00;100133.13;5092846;28;20195;-84
2022/01/28 02:34:25;;;;;;;7.13;2.57;;;;;;;4.44;100.00;100148.69;5088328;28;20199;-85
2022/01/28 02:36:56;;;;;;;7.70;2.67;;;;;;;4.44;100.00;100148.69;5053597;28;20204;-84
2022/01/28 02:39:24;;;;;;;7.47;2.57;;;;;;;4.47;100.00;100169.59;5091449;28;20662;-84
2022/01/28 02:42:00;;;;;;;10.53;2.67;;;;;;;4.46;100.00;100181.00;5026775;28;20200;-85
2022/01/28 02:44:44;;;;;;;10.73;3.07;;;;;;;4.12;100.00;100190.47;5092469;28;20200;-84
2022/01/28 02:47:15;;;;;;;8.43;2.37;;;;;;;4.05;100.00;100188.88;5088827;28;20194;-84
2022/01/28 02:49:44;;;;;;;6.53;1.90;;;;;;;3.84;100.00;100191.03;5090079;28;20204;-84
2022/01/28 02:52:24;;;;;;;7.97;2.50;;;;;;;3.77;100.00;100188.59;5093111;28;20192;-85
2022/01/28 02:54:54;;;;;;;8.23;2.20;;;;;;;3.64;100.00;100191.44;5091131;28;20252;-84
2022/01/28 02:57:25;;;;;;;9.67;2.30;;;;;;;3.68;100.00;100190.50;5092097;28;20188;-85
2022/01/28 02:59:55;;;;;;;8.13;2.30;;;;;;;3.70;100.00;100199.19;5092273;28;20203;-85
2022/01/28 03:02:23;;;;;;;4.77;2.10;;;;;;;3.63;100.00;100197.56;5094592;28;20219;-85
2022/01/28 03:07:37;;;;;;;6.37;2.10;;;;;;;3.80;100.00;100204.25;5090426;28;20199;-85
2022/01/28 03:10:29;;;;;;;8.27;2.57;;;;;;;3.62;100.00;100194.97;5048961;28;20201;-85
2022/01/28 03:15:50;;;;;;;6.50;2.23;;;;;;;3.58;100.00;100220.38;5053086;28;20224;-86
2022/01/28 03:18:22;;;;;;;8.13;2.20;;;;;;;3.72;100.00;100220.97;5049628;28;20205;-85
2022/01/28 03:21:00;;;;;;;10.27;2.20;;;;;;;3.77;100.00;100231.38;5046146;28;20363;-85
2022/01/28 03:23:36;;;;;;;6.70;2.43;;;;;;;3.72;100.00;100235.81;5029948;28;20227;-85
2022/01/28 03:26:04;;;;;;;6.30;2.43;;;;;;;3.69;100.00;100228.91;5047553;28;20193;-85
2022/01/28 03:28:32;;;;;;;5.53;2.10;;;;;;;3.56;100.00;100223.91;5074770;28;20776;-84
2022/01/28 03:31:01;;;;;;;8.93;2.77;;;;;;;3.47;100.00;100230.16;5091892;28;20208;-85
2022/01/28 03:33:29;;;;;;;9.23;2.17;;;;;;;3.71;100.00;100242.81;5057774;28;20233;-85
2022/01/28 03:35:58;;;;;;;5.87;1.83;;;;;;;3.69;100.00;100235.91;5082520;28;20265;-85
2022/01/28 03:38:26;;;;;;;10.83;2.03;;;;;;;3.73;100.00;100235.78;5092542;28;20204;-85
2022/01/28 03:40:56;;;;;;;5.50;1.70;;;;;;;3.77;100.00;100244.47;5091332;28;20577;-84
2022/01/28 03:43:26;;;;;;;6.00;1.70;;;;;;;3.72;100.00;100246.31;5027441;28;20221;-85
2022/01/28 03:45:55;;;;;;;4.80;1.27;;;;;;;3.85;100.00;100247.78;5029080;28;20310;-83
2022/01/28 03:48:24;;;;;;;4.53;1.37;;;;;;;3.90;100.00;100260.81;4984337;28;20244;-84
2022/01/28 03:50:52;;;;;;;4.87;1.20;;;;;;;3.96;100.00;100253.72;5027875;28;20221;-85
2022/01/28 03:53:22;;;;;;;4.00;1.13;;;;;;;3.96;100.00;100258.09;5027900;28;20263;-85
2022/01/28 03:55:52;;;;;;;5.20;1.40;;;;;;;3.92;100.00;100241.53;5031673;28;20202;-84
2022/01/28 03:58:23;;;;;;;3.37;1.00;;;;;;;3.95;100.00;100245.84;5030042;28;20201;-84
2022/01/28 04:00:52;;;;;;;4.50;1.13;;;;;;;3.95;100.00;100249.34;5037118;28;20207;-84
2022/01/28 04:04:12;;;;;;;4.53;1.30;;;;;;;3.97;100.00;100246.72;5090496;28;20220;-85
2022/01/28 04:12:12;;;;;;;4.40;1.13;;;;;;;3.95;100.00;100258.97;5049439;28;20204;-85
2022/01/28 04:14:47;;;;;;;3.13;1.00;;;;;;;3.98;100.00;100277.28;5040401;28;20253;-85
2022/01/28 04:17:22;;;;;;;5.00;1.20;;;;;;;3.72;100.00;100288.22;5086174;28;20206;-86
2022/01/28 04:19:51;;;;;;;5.20;1.30;;;;;;;3.68;100.00;100302.28;5094593;28;20232;-85
2022/01/28 04:22:20;;;;;;;4.77;1.40;;;;;;;3.59;100.00;100336.50;5091238;28;20195;-85
2022/01/28 04:24:49;;;;;;;7.50;2.00;;;;;;;3.24;100.00;100358.84;5088563;28;20220;-85
2022/01/28 04:27:17;;;;;;;8.07;1.77;;;;;;;2.56;100.00;100348.44;5090322;28;20199;-83
2022/01/28 04:29:47;;;;;;;6.03;1.50;;;;;;;2.62;100.00;100354.50;5088628;28;20256;-85
2022/01/28 04:32:17;;;;;;;5.00;1.90;;;;;;;2.65;100.00;100360.53;5094205;28;20183;-85
2022/01/28 04:34:46;;;;;;;6.40;1.80;;;;;;;2.75;100.00;100359.53;5091761;28;20656;-85
2022/01/28 04:37:23;;;;;;;8.30;1.80;;;;;;;2.82;100.00;100358.56;5090425;28;20198;-85
2022/01/28 04:39:56;;;;;;;5.53;1.60;;;;;;;2.84;100.00;100353.31;5090917;28;20256;-84
2022/01/28 04:42:43;;;;;;;6.20;1.63;;;;;;;2.80;100.00;100356.88;5086013;28;20207;-84
2022/01/28 04:45:20;;;;;;;6.17;1.60;;;;;;;2.59;100.00;100350.13;5094775;28;20681;-85
2022/01/28 04:48:02;;;;;;;8.10;1.57;;;;;;;2.41;100.00;100359.06;5092262;28;20194;-85
2022/01/28 04:50:40;;;;;;;4.63;1.80;;;;;;;2.52;100.00;100351.13;5093892;28;20261;-85
2022/01/28 04:58:56;;;;;;;8.87;2.07;;;;;;;2.50;100.00;100365.94;5067837;28;20206;-84
2022/01/28 05:01:49;;;;;;;5.67;1.67;;;;;;;2.66;100.00;100364.88;5093792;28;20214;-85
2022/01/28 05:04:40;;;;;;;6.23;1.63;;;;;;;2.59;100.00;100371.06;5093474;28;20232;-84
2022/01/28 05:13:07;;;;;;;7.23;1.80;;;;;;;2.38;100.00;100387.00;5092139;28;20188;-84
2022/01/28 05:24:28;;;;;;;5.37;1.90;;;;;;;2.53;100.00;100413.00;5104967;28;20215;-83
2022/01/28 05:26:59;;;;;;;6.17;1.70;;;;;;;2.56;100.00;100408.59;5104166;28;20203;-84
2022/01/28 05:29:27;;;;;;;6.77;1.70;;;;;;;2.68;100.00;100407.56;5058930;28;20700;-83
2022/01/28 05:31:56;;;;;;;5.13;1.17;;;;;;;2.68;100.00;100399.72;5022348;28;20260;-84
2022/01/28 05:34:27;;;;;;;7.10;1.47;;;;;;;2.74;100.00;100410.13;5051302;28;20279;-84
2022/01/28 05:36:56;;;;;;;6.37;1.57;;;;;;;2.78;100.00;100413.56;5018966;28;20203;-84
2022/01/28 05:39:24;;;;;;;11.83;1.90;;;;;;;2.79;100.00;100410.06;5050305;28;20192;-85
2022/01/28 05:41:53;;;;;;;4.67;1.40;;;;;;;2.76;100.00;100405.72;5047937;28;20193;-85
2022/01/28 05:44:25;;;;;;;7.60;1.80;;;;;;;2.67;100.00;100398.00;5048990;28;20329;-84
2022/01/28 05:46:56;;;;;;;7.23;1.80;;;;;;;2.65;100.00;100393.69;5050690;28;20208;-85
2022/01/28 05:49:26;;;;;;;3.97;1.60;;;;;;;2.58;100.00;100400.72;5071178;28;20200;-84
2022/01/28 05:51:54;;;;;;;7.03;1.70;;;;;;;2.66;100.00;100406.72;5072270;28;20189;-85
2022/01/28 05:54:23;;;;;;;7.07;2.10;;;;;;;2.70;100.00;100404.94;5070946;28;20196;-84
2022/01/28 05:56:51;;;;;;;9.47;1.73;;;;;;;2.78;100.00;100403.09;5072742;28;20216;-84
2022/01/28 05:59:20;;;;;;;7.07;2.10;;;;;;;2.82;100.00;100413.53;5072986;28;20192;-84
2022/01/28 06:01:48;;;;;;;6.27;1.97;;;;;;;2.79;100.00;100420.53;5068677;28;20230;-85
2022/01/28 06:04:19;;;;;;;6.93;1.70;;;;;;;2.86;100.00;100407.34;5071324;28;20311;-85
2022/01/28 06:06:49;;;;;;;6.03;1.23;;;;;;;2.88;100.00;100408.19;5085216;28;20196;-85
2022/01/28 06:09:18;;;;;;;6.90;1.80;;;;;;;2.89;100.00;100422.13;5092959;28;20188;-84
2022/01/28 06:11:47;;;;;;;8.87;1.50;;;;;;;2.94;100.00;100422.97;5085083;28;20191;-85
2022/01/28 06:14:15;;;;;;;6.00;2.30;;;;;;;2.96;100.00;100436.03;5097008;28;20196;-84
2022/01/28 06:16:43;;;;;;;5.00;1.80;;;;;;;2.96;100.00;100439.50;5092246;28;20327;-84
2022/01/28 06:19:11;;;;;;;9.03;1.90;;;;;;;2.97;100.00;100422.91;5092904;28;20229;-85
2022/01/28 06:21:40;;;;;;;10.27;2.20;;;;;;;2.96;100.00;100436.88;5090158;28;20252;-85
2022/01/28 06:24:09;;;;;;;8.33;2.00;;;;;;;2.94;100.00;100446.50;5096611;28;20211;-85
2022/01/28 06:26:37;;;;;;;7.40;1.70;;;;;;;2.93;100.00;100438.69;5087989;28;20191;-84
2022/01/28 06:29:06;;;;;;;11.27;1.90;;;;;;;2.91;100.00;100437.84;5096683;28;20199;-85
2022/01/28 06:31:35;;;;;;;9.93;2.00;;;;;;;3.01;100.00;100436.84;5042423;28;20210;-84
2022/01/28 06:34:03;;;;;;;9.90;1.80;;;;;;;2.98;100.00;100444.72;5087529;28;20207;-83
2022/01/28 06:36:31;;;;;;;7.37;1.73;;;;;;;2.98;100.00;100449.94;5087635;28;20230;-84
2022/01/28 06:39:00;;;;;;;7.13;1.53;;;;;;;3.01;100.00;100442.06;5089193;28;20192;-84
2022/01/28 06:41:32;;;;;;;6.53;1.60;;;;;;;2.96;100.00;100442.13;5095966;28;20192;-84
2022/01/28 06:44:00;;;;;;;8.70;1.80;;;;;;;2.94;100.00;100451.75;5093751;28;20203;-84
2022/01/28 06:46:29;;;;;;;8.53;1.83;;;;;;;2.88;100.00;100449.19;5095277;28;20214;-84
2022/01/28 06:48:59;;;;;;;7.80;1.77;;;;;;;2.90;100.00;100452.69;5093708;28;20191;-83
2022/01/28 06:51:27;;;;;;;6.97;2.07;;;;;;;2.84;100.00;100465.81;5093989;28;20199;-85
2022/01/28 06:53:56;;;;;;;6.33;1.77;;;;;;;2.86;100.00;100462.28;5095620;28;20195;-83
2022/01/28 06:56:32;;;;;;;8.17;1.70;;;;;;;2.84;100.00;100471.91;5089649;28;20195;-85
2022/01/28 06:59:02;;;;;;;8.60;1.77;;;;;;;2.82;100.00;100460.63;5061873;28;20199;-84
2022/01/28 07:01:30;;;;;;;11.73;2.10;;;;;;;2.86;100.00;100464.91;5089546;28;20192;-84
2022/01/28 07:04:00;;;;;;;5.63;1.60;;;;;;;2.84;100.00;100469.31;5088610;28;20250;-85
2022/01/28 07:06:30;;;;;;;7.80;2.00;;;;;;;2.86;100.00;100475.38;5086166;28;20239;-85
2022/01/28 07:08:58;;;;;;;9.60;2.30;;;;;;;2.93;100.00;100481.41;5088989;28;20205;-84
2022/01/28 07:11:26;;;;;;;8.40;1.87;;;;;;;2.96;100.00;100476.13;5098406;28;20259;-84
2022/01/28 07:13:55;;;;;;;7.30;2.10;;;;;;;2.96;100.00;100476.13;5093794;28;20200;-85
2022/01/28 07:16:26;;;;;;;6.57;1.67;;;;;;;3.05;100.00;100485.63;5041247;28;20187;-86
2022/01/28 07:18:54;;;;;;;9.07;2.30;;;;;;;3.08;100.00;100496.91;5091564;28;20206;-85
2022/01/28 07:21:23;;;;;;;7.10;1.70;;;;;;;3.08;100.00;100496.91;5032889;28;20219;-85
2022/01/28 07:23:51;;;;;;;4.27;1.70;;;;;;;3.04;100.00;100507.47;5031015;28;20194;-85
2022/01/28 07:26:19;;;;;;;8.67;2.00;;;;;;;3.05;100.00;100517.03;5029692;28;20684;-85
2022/01/28 07:28:49;;;;;;;8.97;1.80;;;;;;;3.11;100.00;100527.47;5031699;28;20692;-84
2022/01/28 07:31:18;;;;;;;6.20;1.67;;;;;;;3.17;100.00;100522.13;5028845;28;20204;-84
2022/01/28 07:33:49;;;;;;;4.77;1.60;;;;;;;3.10;100.00;100523.09;5034707;28;20734;-85
2022/01/28 07:36:17;;;;;;;4.00;1.37;;;;;;;3.16;100.00;100530.88;5034787;28;20201;-84
2022/01/28 07:38:45;;;;;;;8.07;1.70;;;;;;;3.15;100.00;100537.84;5042751;28;20714;-85
2022/01/28 07:41:14;;;;;;;6.10;2.13;;;;;;;3.21;100.00;100541.31;5043110;28;20237;-85
2022/01/28 07:43:43;;;;;;;8.47;1.80;;;;;;;3.23;100.00;100550.00;5092679;28;20199;-85
2022/01/28 07:46:11;;;;;;;7.03;2.03;;;;;;;3.28;100.00;100556.03;5090135;28;20302;-85
2022/01/28 07:48:39;;;;;;;8.60;2.30;;;;;;;3.31;100.00;100562.13;5092093;28;20200;-85
2022/01/28 07:51:09;;;;;;;8.80;1.70;;;;;;;3.37;100.00;100554.16;5094365;28;20188;-85
2022/01/28 07:53:38;;;;;;;5.63;1.77;;;;;;;3.28;100.00;100551.69;5092682;28;20261;-85
2022/01/28 07:56:07;;;;;;;6.10;1.93;;;;;;;3.20;100.00;100558.75;5090771;28;20195;-85
2022/01/28 07:58:35;;;;;;;6.87;1.70;;;;;;;3.06;100.00;100564.13;5095001;28;20195;-85
2022/01/28 08:01:04;;;;;;;7.20;1.80;;;;;;;3.02;100.00;100564.19;5091734;28;20203;-85
2022/01/28 08:03:32;;;;;;;9.10;2.10;;;;;;;3.08;100.00;100571.97;5091068;28;20223;-85
2022/01/28 08:06:01;;;;;;;9.03;2.30;;;;;;;3.12;100.00;100563.22;5091923;28;20222;-85
2022/01/28 08:08:30;;;;;;;7.83;2.13;;;;;;;3.24;100.00;100552.59;5040915;28;20192;-85
2022/01/28 08:10:59;;;;;;;9.67;2.13;;;;;;;3.29;100.00;100571.75;5090622;28;20196;-84
2022/01/28 08:13:28;;;;;;;12.07;2.20;;;;;;;3.35;100.00;100569.03;5092080;28;20225;-84
2022/01/28 08:15:58;;;;;;;6.97;2.00;;;;;;;3.34;100.00;100563.81;5091710;28;20245;-84
2022/01/28 08:18:27;;;;;;;4.67;2.20;;;;;;;3.32;100.00;100583.94;5084128;28;20200;-85
2022/01/28 08:20:55;;;;;;;5.67;2.13;;;;;;;3.29;100.00;100578.75;5088759;28;20199;-84
2022/01/28 08:23:24;;;;;;;8.50;2.83;;;;;;;3.32;100.00;100587.41;5085017;28;20196;-84
2022/01/28 08:25:55;;;;;;;8.13;2.33;;;;;;;3.33;100.00;100588.28;5087792;28;20225;-85
2022/01/28 08:28:23;;;;;;;10.00;2.57;;;;;;;3.34;100.00;100593.50;5091244;28;20187;-85
2022/01/28 08:30:53;;;;;;;6.50;2.20;;;;;;;3.31;100.00;100596.16;5090273;28;20195;-84
2022/01/28 08:33:23;;;;;;;8.17;1.83;;;;;;;3.27;100.00;100601.44;5094692;28;20196;-84
2022/01/28 08:35:53;;;;;;;5.70;2.10;;;;;;;3.32;100.00;100597.88;5086825;28;20245;-84
2022/01/28 08:38:36;;;;;;;9.93;2.40;;;;;;;3.39;100.00;100602.19;5091552;28;20225;-84
2022/01/28 08:41:06;;;;;;;9.20;2.47;;;;;;;3.47;100.00;100596.81;5089231;28;20195;-85
2022/01/28 08:43:35;;;;;;;8.77;2.43;;;;;;;3.57;100.00;100593.25;5037660;28;20221;-85
2022/01/28 08:46:04;;;;;;;8.80;2.40;;;;;;;3.68;100.00;100595.72;5086335;28;20264;-84
2022/01/28 08:48:33;;;;;;;6.50;2.43;;;;;;;3.72;100.00;100595.66;5086704;28;20192;-83
2022/01/28 08:51:01;;;;;;;11.63;2.67;;;;;;;3.83;100.00;100594.63;5091808;28;20218;-84
2022/01/28 08:53:30;;;;;;;7.93;2.30;;;;;;;3.83;100.00;100595.50;5082124;28;20195;-84
2022/01/28 08:55:58;;;;;;;8.77;2.10;;;;;;;3.96;100.00;100594.47;5090157;28;20229;-84
2022/01/28 08:58:27;;;;;;;11.37;2.80;;;;;;;4.06;100.00;100604.84;5093641;28;20196;-84
2022/01/28 09:00:56;;;;;;;10.10;2.43;;;;;;;4.12;100.00;100597.72;5091769;28;20192;-84
2022/01/28 09:03:29;;;;;;;10.27;3.30;;;;;;;4.20;100.00;100595.00;5085231;28;20227;-84
2022/01/28 09:05:58;;;;;;;13.20;2.67;;;;;;;4.28;100.00;100593.13;5083245;28;20219;-84
2022/01/28 09:08:26;;;;;;;11.80;3.10;;;;;;;4.32;100.00;100592.19;5085977;28;20191;-83
2022/01/28 09:11:18;;;;;;;8.23;2.37;;;;;;;4.47;100.00;100596.34;5089462;28;20203;-83
2022/01/28 09:13:52;;;;;;;9.80;2.80;;;;;;;4.54;100.00;100593.59;5031385;28;20198;-83
2022/01/28 09:16:21;;;;;;;8.87;2.60;;;;;;;4.63;100.00;100594.31;5030270;28;20243;-83
2022/01/28 09:18:50;;;;;;;7.70;2.40;;;;;;;4.75;100.00;100594.97;4992005;28;20202;-83
2022/01/28 09:21:20;;;;;;;13.80;3.00;;;;;;;4.89;100.00;100592.09;4993269;28;20242;-83
2022/01/28 09:23:49;;;;;;;9.83;2.90;;;;;;;4.95;100.00;100594.63;4986523;28;20206;-83
2022/01/28 09:26:21;;;;;;;12.33;2.00;;;;;;;5.06;100.00;100589.19;4988725;28;20219;-83
2022/01/28 09:28:53;;;;;;;10.63;2.80;;;;;;;5.13;100.00;100598.69;4990041;28;20198;-83
2022/01/28 09:31:21;;;;;;;13.47;3.00;;;;;;;5.09;100.00;100597.00;4985121;28;20254;-83
2022/01/28 09:33:50;;;;;;;7.23;2.40;;;;;;;5.23;100.00;100602.00;5009153;28;20213;-84
2022/01/28 09:36:19;;;;;;;9.77;2.73;;;;;;;5.30;100.00;100598.34;5018769;28;20193;-84
2022/01/28 09:38:47;;;;;;;11.30;2.53;;;;;;;5.33;100.00;100603.56;5048596;28;20201;-83
2022/01/28 09:41:16;;;;;;;8.73;2.67;;;;;;;5.43;100.00;100594.59;5041493;28;20204;-83
2022/01/28 09:43:47;;;;;;;10.77;2.63;;;;;;;5.58;100.00;100598.66;5047839;28;20284;-84
2022/01/28 09:46:17;;;;;;;14.60;2.50;;;;;;;5.86;100.00;100601.59;5044805;28;20216;-84
2022/01/28 09:48:47;;;;;;;15.00;2.70;;;;;;;6.02;100.00;100600.41;5044941;28;20668;-83
2022/01/28 09:51:15;;;;;;;12.57;2.77;;;;;;;6.06;100.00;100603.81;5057044;28;20257;-84
2022/01/28 09:53:44;;;;;;;14.20;2.77;;;;;;;6.13;100.00;100611.53;5085606;28;20670;-84
2022/01/28 09:56:12;;;;;;;9.03;2.17;;;;;;;6.21;100.00;100614.88;5088236;28;20231;-84
2022/01/28 09:58:42;;;;;;;12.30;2.67;;;;;;;6.21;100.00;100624.53;5046770;28;20223;-84
2022/01/28 10:01:10;;;;;;;8.37;2.03;;;;;;;6.12;100.00;100622.97;5045616;28;20201;-83
2022/01/28 10:03:39;;;;;;;9.00;2.27;;;;;;;5.94;100.00;100634.75;5010194;28;20266;-84
2022/01/28 10:06:08;;;;;;;11.43;2.60;;;;;;;5.86;100.00;100625.25;5064707;28;20252;-84
2022/01/28 10:08:37;;;;;;;11.80;2.83;;;;;;;5.91;100.00;100632.19;5066051;28;20197;-83
2022/01/28 10:11:09;;;;;;;15.53;2.77;;;;;;;5.65;100.00;100642.34;5073190;28;20204;-83
2022/01/28 10:13:42;;;;;;;9.80;3.17;;;;;;;5.58;100.00;100646.84;5068052;28;20342;-84
2022/01/28 10:16:13;;;;;;;10.80;2.70;;;;;;;5.62;100.00;100652.94;5074658;28;20211;-83
2022/01/28 10:18:50;;;;;;;12.67;3.20;;;;;;;5.56;100.00;100646.00;5096363;28;20195;-83
2022/01/28 10:21:30;;;;;;;16.63;2.93;;;;;;;5.52;100.00;100654.00;5088150;28;20256;-84
2022/01/28 10:24:05;;;;;;;13.83;2.70;;;;;;;5.61;100.00;100657.31;5094073;28;20195;-84
2022/01/28 10:26:35;;;;;;;10.60;2.40;;;;;;;5.63;100.00;100655.53;5056627;28;20252;-83
2022/01/28 10:29:05;;;;;;;12.13;2.60;;;;;;;5.67;100.00;100656.31;5051340;28;20201;-84
2022/01/28 10:31:39;;;;;;;13.03;2.30;;;;;;;5.69;100.00;100665.03;5049571;28;20212;-84
2022/01/28 10:34:22;;;;;;;10.77;2.20;;;;;;;5.64;100.00;100670.38;5051796;28;20223;-83
2022/01/28 10:36:52;;;;;;;10.47;2.50;;;;;;;5.75;100.00;100667.53;5053833;28;20201;-84
2022/01/28 10:39:23;;;;;;;11.03;2.33;;;;;;;5.88;100.00;100669.03;5048759;28;20201;-84
2022/01/28 10:41:57;;;;;;;11.37;2.70;;;;;;;5.87;100.00;100664.66;5040215;28;20205;-84
2022/01/28 10:44:27;;;;;;;11.53;2.60;;;;;;;5.69;100.00;100668.56;5050144;28;20197;-83
2022/01/28 10:46:58;;;;;;;10.00;2.33;;;;;;;5.61;100.00;100665.19;5065577;28;20242;-83
2022/01/28 10:49:35;;;;;;;13.93;2.70;;;;;;;5.64;100.00;100666.91;5053896;28;20239;-83
2022/01/28 10:52:11;;;;;;;11.87;2.60;;;;;;;5.64;100.00;100659.88;5050247;28;20193;-84
2022/01/28 10:54:42;;;;;;;10.77;2.50;;;;;;;5.73;100.00;100664.94;5047864;28;20199;-84
2022/01/28 10:57:10;;;;;;;11.23;2.40;;;;;;;5.64;100.00;100672.16;5052677;28;20276;-83
2022/01/28 10:59:41;;;;;;;9.50;2.57;;;;;;;5.70;100.00;100665.03;5050460;28;20193;-83
2022/01/28 11:02:34;;;;;;;12.10;2.70;;;;;;;5.84;100.00;100666.50;5012229;28;20335;-83
2022/01/28 11:05:05;;;;;;;12.13;2.30;;;;;;;5.85;100.00;100662.97;5027393;28;20198;-83
2022/01/28 11:07:34;;;;;;;12.00;2.63;;;;;;;5.83;100.00;100659.50;5060185;28;20215;-83
2022/01/28 11:10:02;;;;;;;12.93;3.30;;;;;;;5.68;100.00;100648.38;5088976;28;20229;-83
2022/01/28 11:12:30;;;;;;;9.63;2.50;;;;;;;5.82;100.00;100652.53;5095062;28;20215;-83
2022/01/28 11:14:58;;;;;;;18.23;2.60;;;;;;;5.75;100.00;100655.25;5093017;28;20203;-83
2022/01/28 11:17:27;;;;;;;14.93;2.70;;;;;;;5.80;100.00;100657.81;5092004;28;20196;-84
2022/01/28 11:19:56;;;;;;;13.03;2.73;;;;;;;5.78;100.00;100650.84;5029946;28;20189;-83
2022/01/28 11:22:43;;;;;;;13.10;3.07;;;;;;;5.77;100.00;100641.22;5028451;28;20186;-83
2022/01/28 11:25:39;;;;;;;11.00;2.40;;;;;;;5.65;100.00;100637.09;5026096;28;20194;-83
2022/01/28 11:28:09;;;;;;;13.03;2.53;;;;;;;6.14;100.00;100646.59;5028146;28;20225;-83
2022/01/28 11:30:46;;;;;;;10.97;2.40;;;;;;;6.46;100.00;100644.09;4983748;28;20197;-83
2022/01/28 11:33:15;;;;;;;13.83;2.90;;;;;;;6.61;100.00;100642.88;5025865;28;20220;-83
2022/01/28 11:36:01;;;;;;;13.40;2.87;;;;;;;6.81;100.00;100647.66;5033399;28;20200;-83
2022/01/28 11:38:42;;;;;;;8.73;2.13;;;;;;;7.24;100.00;100630.75;5069919;28;20719;-83
2022/01/28 11:41:24;;;;;;;16.53;3.37;;;;;;;7.19;100.00;100630.88;5046506;28;20204;-83
2022/01/28 11:43:55;;;;;;;15.13;3.10;;;;;;;7.37;100.00;100630.41;5047916;28;20235;-82
2022/01/28 11:46:27;;;;;;;12.50;2.93;;;;;;;7.60;100.00;100623.63;5049170;28;20305;-83
2022/01/28 11:49:22;;;;;;;12.27;2.80;;;;;;;7.67;100.00;100633.94;5046978;28;20228;-82
2022/01/28 11:51:52;;;;;;;10.00;2.30;;;;;;;7.53;100.00;100627.31;5052641;28;20197;-82
2022/01/28 11:54:36;;;;;;;11.87;2.00;;;;;;;7.69;100.00;100633.91;5050552;28;20253;-82
2022/01/28 11:57:18;;;;;;;11.87;2.40;;;;;;;7.94;100.00;100624.38;5046625;28;20193;-82
2022/01/28 11:59:47;;;;;;;12.97;2.50;;;;;;;8.15;100.00;100628.16;5080728;28;20191;-82
2022/01/28 12:02:21;;;;;;;14.60;3.00;;;;;;;8.29;100.00;100625.94;5095282;28;20195;-82
2022/01/28 12:04:53;;;;;;;7.43;2.20;;;;;;;8.51;100.00;100627.97;5095388;28;20191;-83
2022/01/28 12:07:24;;;;;;;12.87;2.53;;;;;;;8.54;100.00;100625.22;5089761;28;20223;-83
2022/01/28 12:09:55;;;;;;;10.10;2.97;;;;;;;8.59;100.00;100610.09;5086345;28;20195;-82
2022/01/28 12:13:00;;;;;;;12.37;2.87;;;;;;;8.38;100.00;100616.03;5028214;28;20186;-82
2022/01/28 12:15:30;;;;;;;12.37;2.60;;;;;;;7.81;100.00;100632.69;5026376;28;20235;-82
2022/01/28 12:18:10;;;;;;;11.03;2.70;;;;;;;7.90;100.00;100629.78;5028492;28;20222;-82
2022/01/28 12:20:44;;;;;;;11.00;2.53;;;;;;;8.08;100.00;100621.31;5025507;28;20228;-82
2022/01/28 12:23:29;;;;;;;13.67;2.70;;;;;;;8.19;100.00;100623.63;5030509;28;20193;-83
2022/01/28 12:26:00;;;;;;;12.53;2.80;;;;;;;8.01;100.00;100623.28;5026214;28;20196;-83
2022/01/28 12:28:54;;;;;;;9.23;2.27;;;;;;;8.26;100.00;100623.41;5024868;28;20225;-83
2022/01/28 12:31:29;;;;;;;10.27;2.60;;;;;;;8.42;100.00;100625.59;5083072;28;20195;-82
2022/01/28 12:34:02;;;;;;;11.00;2.60;;;;;;;8.38;100.00;100629.25;5088220;28;20187;-83
2022/01/28 12:36:32;;;;;;;11.27;2.47;;;;;;;8.36;100.00;100636.34;5090148;28;20187;-82
2022/01/28 12:39:14;;;;;;;9.83;2.03;;;;;;;8.64;100.00;100641.63;5091076;28;20191;-82
2022/01/28 12:42:06;;;;;;;9.63;2.13;;;;;;;8.45;100.00;100639.56;5091457;28;20748;-83
2022/01/28 12:44:35;;;;;;;8.43;1.93;;;;;;;8.32;100.00;100651.41;5088974;28;20274;-83
2022/01/28 12:47:08;;;;;;;8.90;2.23;;;;;;;8.26;100.00;100647.16;5055927;28;20249;-82
2022/01/28 12:49:38;;;;;;;13.83;2.90;;;;;;;8.11;100.00;100652.06;5090417;28;20246;-83